Quinlan, TX

7:57 PM CST on December 17, 2014 (GMT -0600)
Deer Park | Change Station
CLOSE
Current Station
Personal Weather Station
Location: Quinlan, TX
Elevation: 469 ft
Nearby Weather Stations

Elev 469 ft 32.88 °N, 96.10 °W | Updated 3 seconds ago

Rain
Rain
40.0 °F
Feels Like 35 °F
N
8.1
Wind Variable Wind from East
Gusts 8.1 mph

Today
High -- | Low -- °F
--% Chance of Precip.
Yesterday
High -- | Low -- °F
Precip. -- in
7:20 AM 5:20 PM
Waning Crescent, 18% visible
Pressure 30.17 in
Visibility 7.0 miles
Clouds Scattered Clouds 400 ft
Overcast 3300 ft
Windchill 35 °F
Dew Point 31 °F
Humidity 71%
Rainfall 0.11 in
Snow Depth Not available.
UV 0 out of 12
Pollen 8.20 out of 12
Air Quality Not available.
Flu Activity Not available.
METAR KGVT 180135Z AUTO 05005KT 7SM RA SCT004 OVC033 05/03 A3017 RMK AO2 P0004

More Conditions Fewer Conditions

Pressure 30.17 in
Visibility 7.0 miles
Clouds Scattered Clouds 400 ft
Overcast 3300 ft
Windchill 35 °F
Dew Point 31 °F
Humidity 71%
Rainfall 0.11 in
Snow Depth Not available.
UV 0 out of 12
Pollen 8.20 out of 12
Air Quality Not available.
Flu Activity Not available.
METAR KGVT 180135Z AUTO 05005KT 7SM RA SCT004 OVC033 05/03 A3017 RMK AO2 P0004

More Conditions Fewer Conditions

Nowcast | as of 6:42 PM CST on December 17, 2014

Widely scattered showers and drizzle will continue moving to the northeast across north and central Texas this evening. Additional rainfall will not amount to much...with less than one tenth of an inch possible. The showers will taper off from west to east over the next several hours. Elsewhere...skies will be cloudy with temperatures falling into the low 40s and upper 30s.

×

10-Day Weather Forecast

Almanac

Astronomy

Dec. 17, 2014 Rise Set
Actual Time
Civil Twilight
Nautical Twilight
Astronomical Twilight
Moon
Length of Visible Light
Length of Day
Tomorrow will be .
, % of the Moon is Illuminated

Today's Extremes

State Highs State Lows

Community

WunderPhotos

Upload Photos

1,778,846 photos uploaded!

WunderBlogs® & News

Nearby

Air Quality

  Air Quality AQ Index Pollutant
Not available.

Snow Depth

Station Depth Elevation

Earthquake Activity

City Distance Mag. Time & Date
Minimum magnitude displayed is 2.5.

Coastal Water Temperatures

Place Temperature

Nearby Weather Stations